NKS751 KPIT-KMCO
Flight info
| Callsign | NKS751 |
|---|---|
| Flight time | 1h 50m |
| Altitude | 36000 |
| Route | CKB COBBE DANCO Q103 SLOJO/N0450F370 EFFAY/N0455F360 Q83 ROYCO Q85 LPERD GTOUT1 |
| Aircraft | A320/M-SDE3FGHIRWY/LB1 |
Departure
| Time | 2026-05-06 19:31 |
|---|---|
| Airport | Pittsburgh International Airport (KPIT) |
Arrival
| Time | 2026-05-06 21:21 |
|---|---|
| Airport | Orlando International Airport (KMCO) |
| Time | Latitude | Longitude | Altitude | Speed | Heading |
|---|---|---|---|---|---|
| 2026-05-06 19:17 | 40.49273 | -80.24218 | 1155 ft | 0 kts | 5° |
| 2026-05-06 19:18 | 40.49272 | -80.24218 | 1155 ft | 1 kts | 5° |
| 2026-05-06 19:18 | 40.49251 | -80.24220 | 1154 ft | 4 kts | 6° |
| 2026-05-06 19:19 | 40.49226 | -80.24228 | 1155 ft | 4 kts | 36° |
| 2026-05-06 19:19 | 40.49213 | -80.24251 | 1155 ft | 2 kts | 91° |
| 2026-05-06 19:19 | 40.49213 | -80.24253 | 1155 ft | 0 kts | 92° |
| 2026-05-06 19:23 | 40.49212 | -80.24235 | 1153 ft | 3 kts | 92° |
| 2026-05-06 19:23 | 40.49212 | -80.24224 | 1152 ft | 2 kts | 92° |
| 2026-05-06 19:23 | 40.49210 | -80.24179 | 1155 ft | 9 kts | 92° |
| 2026-05-06 19:23 | 40.49208 | -80.24092 | 1155 ft | 11 kts | 92° |
| 2026-05-06 19:24 | 40.49186 | -80.24002 | 1154 ft | 11 kts | 148° |
| 2026-05-06 19:24 | 40.49130 | -80.23992 | 1155 ft | 8 kts | 180° |
| 2026-05-06 19:24 | 40.49075 | -80.23969 | 1154 ft | 10 kts | 124° |
| 2026-05-06 19:24 | 40.49065 | -80.23871 | 1153 ft | 12 kts | 92° |
| 2026-05-06 19:25 | 40.49061 | -80.23750 | 1153 ft | 14 kts | 92° |
| 2026-05-06 19:25 | 40.49057 | -80.23613 | 1154 ft | 16 kts | 92° |
| 2026-05-06 19:25 | 40.49054 | -80.23458 | 1153 ft | 18 kts | 91° |
| 2026-05-06 19:25 | 40.49049 | -80.23282 | 1153 ft | 21 kts | 92° |
| 2026-05-06 19:26 | 40.49044 | -80.23103 | 1153 ft | 19 kts | 92° |
| 2026-05-06 19:26 | 40.49039 | -80.22921 | 1153 ft | 21 kts | 91° |
| 2026-05-06 19:26 | 40.49035 | -80.22720 | 1153 ft | 23 kts | 92° |
| 2026-05-06 19:26 | 40.49030 | -80.22525 | 1153 ft | 19 kts | 92° |
| 2026-05-06 19:27 | 40.49025 | -80.22356 | 1153 ft | 20 kts | 90° |
| 2026-05-06 19:27 | 40.49033 | -80.22171 | 1153 ft | 20 kts | 91° |
| 2026-05-06 19:27 | 40.49029 | -80.21992 | 1153 ft | 15 kts | 91° |
| 2026-05-06 19:27 | 40.49022 | -80.21971 | 1151 ft | 5 kts | 141° |
| 2026-05-06 19:28 | 40.48973 | -80.21934 | 1150 ft | 11 kts | 147° |
| 2026-05-06 19:28 | 40.48899 | -80.21860 | 1149 ft | 16 kts | 136° |
| 2026-05-06 19:28 | 40.48835 | -80.21776 | 1151 ft | 5 kts | 136° |
| 2026-05-06 19:28 | 40.48806 | -80.21741 | 1151 ft | 6 kts | 137° |
| 2026-05-06 19:29 | 40.48767 | -80.21693 | 1152 ft | 11 kts | 136° |
| 2026-05-06 19:29 | 40.48701 | -80.21610 | 1151 ft | 14 kts | 136° |
| 2026-05-06 19:29 | 40.48632 | -80.21523 | 1148 ft | 11 kts | 134° |
| 2026-05-06 19:29 | 40.48579 | -80.21523 | 1151 ft | 7 kts | 238° |
| 2026-05-06 19:30 | 40.48579 | -80.21577 | 1147 ft | 0 kts | 271° |
| 2026-05-06 19:30 | 40.48580 | -80.21596 | 1148 ft | 11 kts | 271° |
| 2026-05-06 19:30 | 40.48590 | -80.21979 | 1148 ft | 78 kts | 272° |
| 2026-05-06 19:31 | 40.48616 | -80.22963 | 1151 ft | 135 kts | 272° |
| 2026-05-06 19:31 | 40.48659 | -80.24364 | 1373 ft | 161 kts | 275° |
| 2026-05-06 19:31 | 40.48704 | -80.27304 | 2643 ft | 171 kts | 273° |
| 2026-05-06 19:32 | 40.48536 | -80.28919 | 2980 ft | 191 kts | 248° |
| 2026-05-06 19:32 | 40.47541 | -80.30183 | 3307 ft | 216 kts | 205° |
| 2026-05-06 19:32 | 40.46001 | -80.30537 | 3690 ft | 236 kts | 185° |
| 2026-05-06 19:32 | 40.44273 | -80.30525 | 4076 ft | 261 kts | 179° |
| 2026-05-06 19:33 | 40.42418 | -80.30381 | 4715 ft | 273 kts | 178° |
| 2026-05-06 19:33 | 40.40513 | -80.30216 | 5584 ft | 274 kts | 180° |
| 2026-05-06 19:33 | 40.38615 | -80.30073 | 6571 ft | 272 kts | 182° |
| 2026-05-06 19:33 | 40.36727 | -80.29960 | 7508 ft | 271 kts | 184° |
| 2026-05-06 19:34 | 40.34841 | -80.29874 | 8410 ft | 272 kts | 185° |
| 2026-05-06 19:34 | 40.32949 | -80.29806 | 9320 ft | 272 kts | 186° |
| 2026-05-06 19:34 | 40.31055 | -80.29748 | 10226 ft | 273 kts | 187° |
| 2026-05-06 19:34 | 40.29099 | -80.29700 | 10638 ft | 292 kts | 187° |
| 2026-05-06 19:35 | 40.26990 | -80.29659 | 10866 ft | 314 kts | 186° |
| 2026-05-06 19:35 | 40.24759 | -80.29607 | 11375 ft | 325 kts | 186° |
| 2026-05-06 19:35 | 40.22482 | -80.29542 | 12105 ft | 330 kts | 186° |
| 2026-05-06 19:35 | 40.20175 | -80.29470 | 12853 ft | 334 kts | 186° |
| 2026-05-06 19:36 | 40.17836 | -80.29396 | 13598 ft | 338 kts | 186° |
| 2026-05-06 19:36 | 40.15466 | -80.29321 | 14271 ft | 343 kts | 186° |
| 2026-05-06 19:36 | 40.13026 | -80.29249 | 14933 ft | 347 kts | 187° |
| 2026-05-06 19:36 | 40.10674 | -80.29181 | 15573 ft | 350 kts | 188° |
| 2026-05-06 19:37 | 40.08221 | -80.29114 | 16194 ft | 355 kts | 188° |
| 2026-05-06 19:37 | 40.05706 | -80.29048 | 16738 ft | 359 kts | 189° |
| 2026-05-06 19:37 | 40.03224 | -80.28982 | 17319 ft | 364 kts | 189° |
| 2026-05-06 19:37 | 40.01504 | -80.28935 | 17729 ft | 367 kts | 189° |
| 2026-05-06 19:38 | 39.98095 | -80.28837 | 18510 ft | 372 kts | 190° |
| 2026-05-06 19:38 | 39.95495 | -80.28762 | 19096 ft | 375 kts | 190° |
| 2026-05-06 19:38 | 39.92876 | -80.28687 | 19729 ft | 378 kts | 191° |
| 2026-05-06 19:38 | 39.90237 | -80.28611 | 20370 ft | 380 kts | 191° |
| 2026-05-06 19:39 | 39.87584 | -80.28533 | 20997 ft | 383 kts | 191° |
| 2026-05-06 19:39 | 39.84915 | -80.28452 | 21625 ft | 385 kts | 192° |
| 2026-05-06 19:39 | 39.82228 | -80.28372 | 22217 ft | 387 kts | 192° |
| 2026-05-06 19:39 | 39.79523 | -80.28297 | 22808 ft | 390 kts | 192° |
| 2026-05-06 19:40 | 39.76801 | -80.28224 | 23428 ft | 393 kts | 193° |
| 2026-05-06 19:40 | 39.74062 | -80.28150 | 23946 ft | 395 kts | 193° |
| 2026-05-06 19:40 | 39.71302 | -80.28075 | 24458 ft | 398 kts | 193° |
| 2026-05-06 19:40 | 39.68527 | -80.27998 | 24947 ft | 401 kts | 193° |
| 2026-05-06 19:41 | 39.65726 | -80.27920 | 25418 ft | 404 kts | 193° |
| 2026-05-06 19:41 | 39.62904 | -80.27842 | 25903 ft | 407 kts | 193° |
| 2026-05-06 19:41 | 39.60063 | -80.27764 | 26317 ft | 410 kts | 193° |
| 2026-05-06 19:41 | 39.57195 | -80.27688 | 26746 ft | 414 kts | 193° |
| 2026-05-06 19:42 | 39.54301 | -80.27609 | 27211 ft | 418 kts | 193° |
| 2026-05-06 19:42 | 39.51385 | -80.27527 | 27671 ft | 421 kts | 193° |
| 2026-05-06 19:42 | 39.48443 | -80.27441 | 28127 ft | 424 kts | 193° |
| 2026-05-06 19:42 | 39.45488 | -80.27356 | 28571 ft | 427 kts | 193° |
| 2026-05-06 19:43 | 39.42509 | -80.27273 | 28966 ft | 430 kts | 193° |
| 2026-05-06 19:43 | 39.39514 | -80.27190 | 29387 ft | 431 kts | 193° |
| 2026-05-06 19:43 | 39.36520 | -80.27103 | 30011 ft | 430 kts | 193° |
| 2026-05-06 19:43 | 39.33533 | -80.27015 | 30470 ft | 429 kts | 193° |
| 2026-05-06 19:44 | 39.30553 | -80.26928 | 30958 ft | 427 kts | 193° |
| 2026-05-06 19:44 | 39.27585 | -80.26844 | 31424 ft | 426 kts | 194° |
| 2026-05-06 19:44 | 39.24696 | -80.27046 | 31857 ft | 407 kts | 204° |
| 2026-05-06 19:44 | 39.21975 | -80.27764 | 32315 ft | 395 kts | 208° |
| 2026-05-06 19:45 | 39.19301 | -80.28565 | 32787 ft | 394 kts | 208° |
| 2026-05-06 19:45 | 39.17532 | -80.29090 | 33122 ft | 392 kts | 209° |
| 2026-05-06 19:45 | 39.14879 | -80.29876 | 33547 ft | 391 kts | 208° |
| 2026-05-06 19:45 | 39.12236 | -80.30656 | 34022 ft | 389 kts | 209° |
| 2026-05-06 19:46 | 39.09595 | -80.31435 | 34421 ft | 388 kts | 209° |
| 2026-05-06 19:46 | 39.06966 | -80.32212 | 34836 ft | 387 kts | 209° |
| 2026-05-06 19:46 | 39.04342 | -80.32986 | 35239 ft | 387 kts | 209° |
| 2026-05-06 19:46 | 39.01721 | -80.33757 | 35630 ft | 386 kts | 210° |
| 2026-05-06 19:47 | 38.99100 | -80.34529 | 35852 ft | 386 kts | 210° |
| 2026-05-06 19:47 | 38.96467 | -80.35313 | 35897 ft | 392 kts | 210° |
| 2026-05-06 19:47 | 38.91103 | -80.36912 | 35896 ft | 398 kts | 208° |
| 2026-05-06 19:48 | 38.85691 | -80.38495 | 35898 ft | 399 kts | 208° |
| 2026-05-06 19:48 | 38.80274 | -80.40069 | 35895 ft | 399 kts | 208° |
| 2026-05-06 19:49 | 38.74849 | -80.41656 | 35896 ft | 400 kts | 208° |
| 2026-05-06 19:49 | 38.69425 | -80.43248 | 35883 ft | 401 kts | 208° |
| 2026-05-06 19:50 | 38.63968 | -80.44857 | 35878 ft | 403 kts | 208° |
| 2026-05-06 19:50 | 38.58495 | -80.46447 | 35899 ft | 404 kts | 208° |
| 2026-05-06 19:51 | 38.53022 | -80.48030 | 35904 ft | 403 kts | 208° |
| 2026-05-06 19:51 | 38.47553 | -80.49623 | 35861 ft | 403 kts | 208° |
| 2026-05-06 19:52 | 38.42106 | -80.51204 | 35870 ft | 405 kts | 208° |
| 2026-05-06 19:52 | 38.36607 | -80.52790 | 35880 ft | 406 kts | 207° |
| 2026-05-06 19:53 | 38.33763 | -80.53332 | 35885 ft | 417 kts | 202° |
| 2026-05-06 19:53 | 38.30883 | -80.53759 | 35895 ft | 417 kts | 202° |
| 2026-05-06 19:53 | 38.25107 | -80.54588 | 35864 ft | 418 kts | 202° |
| 2026-05-06 19:54 | 38.19337 | -80.55420 | 35877 ft | 418 kts | 202° |
| 2026-05-06 19:54 | 38.13567 | -80.56261 | 35885 ft | 417 kts | 202° |
| 2026-05-06 19:55 | 38.07800 | -80.57095 | 35896 ft | 417 kts | 202° |
| 2026-05-06 19:55 | 38.02032 | -80.57937 | 35902 ft | 417 kts | 202° |
| 2026-05-06 19:56 | 37.96256 | -80.58774 | 35932 ft | 418 kts | 202° |
| 2026-05-06 19:56 | 37.90483 | -80.59614 | 35935 ft | 417 kts | 202° |
| 2026-05-06 19:57 | 37.84715 | -80.60448 | 35928 ft | 417 kts | 202° |
| 2026-05-06 19:57 | 37.78931 | -80.61280 | 35901 ft | 419 kts | 202° |
| 2026-05-06 19:58 | 37.73142 | -80.62112 | 35903 ft | 419 kts | 202° |
| 2026-05-06 19:58 | 37.67357 | -80.62946 | 35882 ft | 419 kts | 202° |
| 2026-05-06 19:59 | 37.61564 | -80.63774 | 35893 ft | 419 kts | 202° |
| 2026-05-06 19:59 | 37.55778 | -80.64606 | 35854 ft | 419 kts | 202° |
| 2026-05-06 20:00 | 37.49982 | -80.65431 | 35871 ft | 419 kts | 202° |
| 2026-05-06 20:00 | 37.44180 | -80.66254 | 35887 ft | 420 kts | 202° |
| 2026-05-06 20:01 | 37.38418 | -80.67074 | 35896 ft | 419 kts | 201° |
| 2026-05-06 20:01 | 37.32619 | -80.67898 | 35873 ft | 419 kts | 201° |
| 2026-05-06 20:02 | 37.26808 | -80.68726 | 35880 ft | 421 kts | 201° |
| 2026-05-06 20:02 | 37.20980 | -80.69557 | 35960 ft | 422 kts | 201° |
| 2026-05-06 20:03 | 37.15146 | -80.70383 | 35963 ft | 423 kts | 201° |
| 2026-05-06 20:03 | 37.09290 | -80.71198 | 35936 ft | 427 kts | 199° |
| 2026-05-06 20:04 | 37.06273 | -80.71259 | 35938 ft | 438 kts | 194° |
| 2026-05-06 20:04 | 37.03219 | -80.71192 | 35940 ft | 440 kts | 193° |
| 2026-05-06 20:04 | 36.97089 | -80.71026 | 35934 ft | 441 kts | 193° |
| 2026-05-06 20:05 | 36.90948 | -80.70858 | 35960 ft | 442 kts | 193° |
| 2026-05-06 20:05 | 36.84799 | -80.70712 | 35959 ft | 442 kts | 194° |
| 2026-05-06 20:06 | 36.78645 | -80.70573 | 35970 ft | 443 kts | 194° |
| 2026-05-06 20:06 | 36.72481 | -80.70434 | 35979 ft | 443 kts | 194° |
| 2026-05-06 20:07 | 36.66311 | -80.70296 | 35985 ft | 444 kts | 193° |
| 2026-05-06 20:07 | 36.60132 | -80.70150 | 35945 ft | 444 kts | 193° |
| 2026-05-06 20:08 | 36.53938 | -80.70007 | 35928 ft | 446 kts | 193° |
| 2026-05-06 20:08 | 36.47716 | -80.69870 | 35943 ft | 448 kts | 193° |
| 2026-05-06 20:09 | 36.41524 | -80.69727 | 35950 ft | 448 kts | 193° |
| 2026-05-06 20:09 | 36.35280 | -80.69569 | 35945 ft | 449 kts | 193° |
| 2026-05-06 20:10 | 36.29024 | -80.69422 | 35956 ft | 450 kts | 193° |
| 2026-05-06 20:10 | 36.22753 | -80.69283 | 35973 ft | 451 kts | 193° |
| 2026-05-06 20:11 | 36.16484 | -80.69135 | 35986 ft | 451 kts | 193° |
| 2026-05-06 20:11 | 36.10201 | -80.68991 | 35945 ft | 452 kts | 192° |
| 2026-05-06 20:12 | 36.03901 | -80.68856 | 35956 ft | 454 kts | 192° |
| 2026-05-06 20:12 | 35.97576 | -80.68713 | 35966 ft | 455 kts | 192° |
| 2026-05-06 20:13 | 35.91233 | -80.68566 | 35978 ft | 456 kts | 192° |
| 2026-05-06 20:13 | 35.84881 | -80.68412 | 35972 ft | 457 kts | 192° |
| 2026-05-06 20:14 | 35.78524 | -80.68270 | 35989 ft | 457 kts | 192° |
| 2026-05-06 20:14 | 35.72160 | -80.68130 | 36000 ft | 458 kts | 192° |
| 2026-05-06 20:15 | 35.65787 | -80.67983 | 36009 ft | 458 kts | 192° |
| 2026-05-06 20:15 | 35.59458 | -80.67837 | 36026 ft | 458 kts | 192° |
| 2026-05-06 20:16 | 35.53087 | -80.67690 | 36034 ft | 458 kts | 192° |
| 2026-05-06 20:16 | 35.46716 | -80.67548 | 36043 ft | 458 kts | 192° |
| 2026-05-06 20:17 | 35.40345 | -80.67403 | 36043 ft | 458 kts | 192° |
| 2026-05-06 20:17 | 35.33964 | -80.67260 | 36025 ft | 458 kts | 191° |
| 2026-05-06 20:18 | 35.27586 | -80.67115 | 36030 ft | 459 kts | 191° |
| 2026-05-06 20:18 | 35.21204 | -80.66966 | 36030 ft | 459 kts | 191° |
| 2026-05-06 20:19 | 35.14817 | -80.66828 | 36025 ft | 459 kts | 191° |
| 2026-05-06 20:19 | 35.08430 | -80.66688 | 36005 ft | 459 kts | 191° |
| 2026-05-06 20:20 | 35.02034 | -80.66546 | 36013 ft | 460 kts | 191° |
| 2026-05-06 20:20 | 34.95633 | -80.66405 | 36027 ft | 460 kts | 191° |
| 2026-05-06 20:21 | 34.89227 | -80.66261 | 36019 ft | 460 kts | 191° |
| 2026-05-06 20:21 | 34.82813 | -80.66117 | 35994 ft | 461 kts | 191° |
| 2026-05-06 20:22 | 34.76385 | -80.65967 | 35995 ft | 462 kts | 191° |
| 2026-05-06 20:22 | 34.69946 | -80.65819 | 36002 ft | 463 kts | 191° |
| 2026-05-06 20:23 | 34.63452 | -80.65165 | 36011 ft | 481 kts | 178° |
| 2026-05-06 20:23 | 34.56934 | -80.62801 | 35980 ft | 491 kts | 173° |
| 2026-05-06 20:24 | 34.50394 | -80.60320 | 35993 ft | 493 kts | 173° |
| 2026-05-06 20:24 | 34.43841 | -80.57851 | 35992 ft | 494 kts | 173° |
| 2026-05-06 20:25 | 34.37275 | -80.55369 | 36005 ft | 495 kts | 173° |
| 2026-05-06 20:25 | 34.30740 | -80.52967 | 35977 ft | 489 kts | 177° |
| 2026-05-06 20:26 | 34.27433 | -80.52284 | 35981 ft | 476 kts | 186° |
| 2026-05-06 20:26 | 34.24169 | -80.52170 | 35987 ft | 463 kts | 194° |
| 2026-05-06 20:26 | 34.21010 | -80.52575 | 35992 ft | 451 kts | 202° |
| 2026-05-06 20:26 | 34.17984 | -80.53408 | 35994 ft | 444 kts | 206° |
| 2026-05-06 20:27 | 34.11984 | -80.55220 | 36016 ft | 445 kts | 206° |
| 2026-05-06 20:27 | 34.05979 | -80.57020 | 35981 ft | 445 kts | 206° |
| 2026-05-06 20:28 | 33.99969 | -80.58815 | 35993 ft | 445 kts | 206° |
| 2026-05-06 20:28 | 33.93951 | -80.60605 | 36002 ft | 445 kts | 206° |
| 2026-05-06 20:29 | 33.87929 | -80.62390 | 35998 ft | 446 kts | 206° |
| 2026-05-06 20:29 | 33.81910 | -80.64182 | 35976 ft | 446 kts | 206° |
| 2026-05-06 20:30 | 33.72871 | -80.66872 | 36025 ft | 447 kts | 206° |
| 2026-05-06 20:31 | 33.66831 | -80.68662 | 36027 ft | 447 kts | 206° |
| 2026-05-06 20:31 | 33.60791 | -80.70442 | 36040 ft | 447 kts | 206° |
| 2026-05-06 20:32 | 33.54752 | -80.72227 | 36015 ft | 447 kts | 206° |
| 2026-05-06 20:32 | 33.48710 | -80.74015 | 36026 ft | 447 kts | 206° |
| 2026-05-06 20:33 | 33.42661 | -80.75792 | 36033 ft | 447 kts | 206° |
| 2026-05-06 20:33 | 33.37636 | -80.77266 | 36037 ft | 448 kts | 206° |
| 2026-05-06 20:34 | 33.31588 | -80.79037 | 36010 ft | 448 kts | 205° |
| 2026-05-06 20:34 | 33.24546 | -80.81104 | 36019 ft | 449 kts | 205° |
| 2026-05-06 20:35 | 33.18480 | -80.82880 | 36027 ft | 449 kts | 205° |
| 2026-05-06 20:35 | 33.13389 | -80.84367 | 36034 ft | 449 kts | 205° |
| 2026-05-06 20:36 | 33.07356 | -80.86129 | 36040 ft | 450 kts | 205° |
| 2026-05-06 20:36 | 33.01277 | -80.87900 | 36044 ft | 450 kts | 205° |
| 2026-05-06 20:37 | 32.95194 | -80.89665 | 36048 ft | 450 kts | 205° |
| 2026-05-06 20:37 | 32.89112 | -80.91429 | 36054 ft | 450 kts | 205° |
| 2026-05-06 20:38 | 32.83036 | -80.93191 | 36054 ft | 449 kts | 205° |
| 2026-05-06 20:38 | 32.76966 | -80.94957 | 36023 ft | 449 kts | 205° |
| 2026-05-06 20:39 | 32.70895 | -80.96714 | 36037 ft | 449 kts | 205° |
| 2026-05-06 20:39 | 32.64819 | -80.98464 | 36044 ft | 449 kts | 205° |
| 2026-05-06 20:40 | 32.58743 | -81.00213 | 36053 ft | 449 kts | 205° |
| 2026-05-06 20:40 | 32.52605 | -81.01787 | 36015 ft | 460 kts | 197° |
| 2026-05-06 20:41 | 32.46097 | -81.02015 | 36032 ft | 470 kts | 191° |
| 2026-05-06 20:41 | 32.39557 | -81.02120 | 36039 ft | 470 kts | 192° |
| 2026-05-06 20:42 | 32.33018 | -81.02242 | 36036 ft | 470 kts | 192° |
| 2026-05-06 20:42 | 32.26480 | -81.02360 | 36021 ft | 470 kts | 191° |
| 2026-05-06 20:43 | 32.19933 | -81.02473 | 36032 ft | 470 kts | 191° |
| 2026-05-06 20:43 | 32.13390 | -81.02587 | 36037 ft | 470 kts | 191° |
| 2026-05-06 20:44 | 32.06848 | -81.02704 | 36030 ft | 470 kts | 191° |
| 2026-05-06 20:44 | 32.00305 | -81.02816 | 36000 ft | 470 kts | 191° |
| 2026-05-06 20:45 | 31.93763 | -81.02959 | 36015 ft | 470 kts | 191° |
| 2026-05-06 20:45 | 31.87233 | -81.03158 | 36023 ft | 469 kts | 192° |
| 2026-05-06 20:46 | 31.80703 | -81.03359 | 36029 ft | 469 kts | 191° |
| 2026-05-06 20:46 | 31.74171 | -81.03533 | 36023 ft | 470 kts | 191° |
| 2026-05-06 20:47 | 31.67678 | -81.03701 | 36027 ft | 470 kts | 191° |
| 2026-05-06 20:47 | 31.61173 | -81.04055 | 36032 ft | 461 kts | 199° |
| 2026-05-06 20:47 | 31.58085 | -81.04838 | 36032 ft | 448 kts | 207° |
| 2026-05-06 20:48 | 31.55199 | -81.06095 | 36031 ft | 437 kts | 215° |
| 2026-05-06 20:48 | 31.51456 | -81.08361 | 36037 ft | 433 kts | 218° |
| 2026-05-06 20:49 | 31.47395 | -81.10858 | 36014 ft | 433 kts | 218° |
| 2026-05-06 20:50 | 31.42041 | -81.14127 | 36020 ft | 435 kts | 217° |
| 2026-05-06 20:50 | 31.36667 | -81.17402 | 36028 ft | 436 kts | 217° |
| 2026-05-06 20:51 | 31.31262 | -81.20633 | 36025 ft | 437 kts | 217° |
| 2026-05-06 20:51 | 31.25823 | -81.23830 | 36026 ft | 438 kts | 217° |
| 2026-05-06 20:52 | 31.20316 | -81.26906 | 36001 ft | 447 kts | 210° |
| 2026-05-06 20:52 | 31.17280 | -81.27892 | 36004 ft | 460 kts | 200° |
| 2026-05-06 20:52 | 31.14044 | -81.28278 | 35996 ft | 475 kts | 189° |
| 2026-05-06 20:53 | 31.07411 | -81.28238 | 36014 ft | 477 kts | 189° |
| 2026-05-06 20:53 | 31.00765 | -81.28211 | 36026 ft | 478 kts | 189° |
| 2026-05-06 20:54 | 30.94106 | -81.28198 | 36011 ft | 479 kts | 189° |
| 2026-05-06 20:54 | 30.90770 | -81.28192 | 35885 ft | 480 kts | 189° |
| 2026-05-06 20:54 | 30.87432 | -81.28185 | 35647 ft | 480 kts | 189° |
| 2026-05-06 20:54 | 30.84084 | -81.28174 | 35411 ft | 482 kts | 189° |
| 2026-05-06 20:55 | 30.80731 | -81.28161 | 35177 ft | 483 kts | 189° |
| 2026-05-06 20:55 | 30.77364 | -81.28153 | 34947 ft | 484 kts | 189° |
| 2026-05-06 20:55 | 30.73991 | -81.28147 | 34721 ft | 486 kts | 188° |
| 2026-05-06 20:55 | 30.70605 | -81.28139 | 34489 ft | 487 kts | 188° |
| 2026-05-06 20:56 | 30.67212 | -81.28131 | 34265 ft | 489 kts | 188° |
| 2026-05-06 20:56 | 30.63804 | -81.28123 | 34011 ft | 490 kts | 188° |
| 2026-05-06 20:56 | 30.60398 | -81.28112 | 33750 ft | 490 kts | 187° |
| 2026-05-06 20:56 | 30.56978 | -81.28017 | 33494 ft | 492 kts | 185° |
| 2026-05-06 20:57 | 30.53547 | -81.27805 | 33073 ft | 494 kts | 184° |
| 2026-05-06 20:57 | 30.50117 | -81.27509 | 32564 ft | 495 kts | 183° |
| 2026-05-06 20:57 | 30.46689 | -81.27176 | 32060 ft | 494 kts | 182° |
| 2026-05-06 20:57 | 30.43268 | -81.26847 | 31564 ft | 493 kts | 183° |
| 2026-05-06 20:58 | 30.39901 | -81.26551 | 31074 ft | 491 kts | 183° |
| 2026-05-06 20:58 | 30.36498 | -81.26280 | 30580 ft | 490 kts | 184° |
| 2026-05-06 20:58 | 30.33101 | -81.26027 | 30080 ft | 489 kts | 184° |
| 2026-05-06 20:58 | 30.29709 | -81.25784 | 29538 ft | 488 kts | 184° |
| 2026-05-06 20:59 | 30.26319 | -81.25547 | 29058 ft | 489 kts | 184° |
| 2026-05-06 20:59 | 30.22923 | -81.25308 | 28554 ft | 489 kts | 183° |
| 2026-05-06 20:59 | 30.19523 | -81.25061 | 28074 ft | 490 kts | 183° |
| 2026-05-06 20:59 | 30.16118 | -81.24808 | 27582 ft | 490 kts | 183° |
| 2026-05-06 21:00 | 30.12724 | -81.24553 | 27091 ft | 487 kts | 182° |
| 2026-05-06 21:00 | 30.09355 | -81.24297 | 26589 ft | 484 kts | 182° |
| 2026-05-06 21:00 | 30.06005 | -81.24043 | 26118 ft | 481 kts | 182° |
| 2026-05-06 21:00 | 30.02674 | -81.23792 | 25632 ft | 478 kts | 182° |
| 2026-05-06 21:01 | 29.99365 | -81.23542 | 25153 ft | 475 kts | 182° |
| 2026-05-06 21:01 | 29.96080 | -81.23295 | 24674 ft | 471 kts | 182° |
| 2026-05-06 21:01 | 29.92819 | -81.23050 | 24195 ft | 468 kts | 182° |
| 2026-05-06 21:01 | 29.89584 | -81.22812 | 23717 ft | 464 kts | 182° |
| 2026-05-06 21:02 | 29.86370 | -81.22577 | 23193 ft | 461 kts | 182° |
| 2026-05-06 21:02 | 29.83178 | -81.22345 | 22737 ft | 458 kts | 181° |
| 2026-05-06 21:02 | 29.80007 | -81.22110 | 22274 ft | 456 kts | 181° |
| 2026-05-06 21:02 | 29.76852 | -81.21874 | 21819 ft | 453 kts | 181° |
| 2026-05-06 21:03 | 29.73720 | -81.21638 | 21363 ft | 450 kts | 181° |
| 2026-05-06 21:03 | 29.70610 | -81.21403 | 20911 ft | 447 kts | 181° |
| 2026-05-06 21:03 | 29.67518 | -81.21160 | 20462 ft | 444 kts | 180° |
| 2026-05-06 21:03 | 29.64445 | -81.20902 | 20013 ft | 441 kts | 180° |
| 2026-05-06 21:04 | 29.61396 | -81.20634 | 19567 ft | 438 kts | 180° |
| 2026-05-06 21:04 | 29.58369 | -81.20364 | 19127 ft | 435 kts | 180° |
| 2026-05-06 21:04 | 29.55361 | -81.20099 | 18688 ft | 432 kts | 180° |
| 2026-05-06 21:04 | 29.52375 | -81.19838 | 18210 ft | 429 kts | 179° |
| 2026-05-06 21:05 | 29.49402 | -81.19582 | 17708 ft | 426 kts | 179° |
| 2026-05-06 21:05 | 29.46459 | -81.19329 | 17303 ft | 423 kts | 179° |
| 2026-05-06 21:05 | 29.43532 | -81.19080 | 16878 ft | 420 kts | 179° |
| 2026-05-06 21:05 | 29.40624 | -81.18835 | 16454 ft | 417 kts | 179° |
| 2026-05-06 21:06 | 29.37740 | -81.18593 | 16035 ft | 414 kts | 178° |
| 2026-05-06 21:06 | 29.34902 | -81.18350 | 15814 ft | 402 kts | 178° |
| 2026-05-06 21:06 | 29.32158 | -81.18111 | 15689 ft | 388 kts | 178° |
| 2026-05-06 21:06 | 29.29513 | -81.17880 | 15489 ft | 377 kts | 178° |
| 2026-05-06 21:07 | 29.26920 | -81.17656 | 15157 ft | 371 kts | 178° |
| 2026-05-06 21:07 | 29.24357 | -81.17432 | 14821 ft | 367 kts | 178° |
| 2026-05-06 21:07 | 29.21815 | -81.17209 | 14468 ft | 365 kts | 178° |
| 2026-05-06 21:07 | 29.19299 | -81.16913 | 14113 ft | 364 kts | 171° |
| 2026-05-06 21:08 | 29.16853 | -81.16136 | 13600 ft | 366 kts | 160° |
| 2026-05-06 21:08 | 29.14466 | -81.15114 | 13200 ft | 365 kts | 160° |
| 2026-05-06 21:08 | 29.12115 | -81.14104 | 12686 ft | 358 kts | 160° |
| 2026-05-06 21:08 | 29.09853 | -81.13133 | 12334 ft | 341 kts | 160° |
| 2026-05-06 21:09 | 29.07695 | -81.12208 | 12118 ft | 324 kts | 160° |
| 2026-05-06 21:09 | 29.05605 | -81.11314 | 11668 ft | 316 kts | 160° |
| 2026-05-06 21:09 | 29.03561 | -81.10455 | 11430 ft | 312 kts | 161° |
| 2026-05-06 21:09 | 29.01513 | -81.09655 | 11193 ft | 310 kts | 163° |
| 2026-05-06 21:10 | 28.99462 | -81.08886 | 10956 ft | 310 kts | 163° |
| 2026-05-06 21:10 | 28.97405 | -81.08185 | 10726 ft | 308 kts | 170° |
| 2026-05-06 21:10 | 28.95292 | -81.07891 | 10469 ft | 305 kts | 176° |
| 2026-05-06 21:10 | 28.93185 | -81.07661 | 10005 ft | 302 kts | 174° |
| 2026-05-06 21:11 | 28.91108 | -81.07421 | 9484 ft | 298 kts | 175° |
| 2026-05-06 21:11 | 28.89054 | -81.07458 | 8984 ft | 294 kts | 190° |
| 2026-05-06 21:11 | 28.87110 | -81.08104 | 8494 ft | 290 kts | 206° |
| 2026-05-06 21:11 | 28.85402 | -81.09274 | 8066 ft | 283 kts | 217° |
| 2026-05-06 21:12 | 28.83842 | -81.10531 | 7932 ft | 266 kts | 216° |
| 2026-05-06 21:12 | 28.82351 | -81.11717 | 7559 ft | 260 kts | 216° |
| 2026-05-06 21:12 | 28.80890 | -81.12873 | 7325 ft | 250 kts | 216° |
| 2026-05-06 21:12 | 28.79499 | -81.13973 | 7196 ft | 239 kts | 216° |
| 2026-05-06 21:13 | 28.78136 | -81.15052 | 7093 ft | 237 kts | 216° |
| 2026-05-06 21:13 | 28.76832 | -81.16185 | 6961 ft | 235 kts | 230° |
| 2026-05-06 21:13 | 28.76108 | -81.17817 | 6690 ft | 233 kts | 258° |
| 2026-05-06 21:13 | 28.75657 | -81.19586 | 6449 ft | 231 kts | 245° |
| 2026-05-06 21:14 | 28.74986 | -81.21240 | 6383 ft | 230 kts | 246° |
| 2026-05-06 21:14 | 28.74326 | -81.22911 | 6150 ft | 232 kts | 246° |
| 2026-05-06 21:14 | 28.73674 | -81.24569 | 5800 ft | 228 kts | 246° |
| 2026-05-06 21:14 | 28.73029 | -81.26209 | 5456 ft | 225 kts | 245° |
| 2026-05-06 21:15 | 28.72398 | -81.27814 | 5117 ft | 219 kts | 245° |
| 2026-05-06 21:15 | 28.71777 | -81.29382 | 4779 ft | 215 kts | 244° |
| 2026-05-06 21:15 | 28.71127 | -81.30901 | 4433 ft | 211 kts | 235° |
| 2026-05-06 21:15 | 28.70133 | -81.32099 | 4091 ft | 208 kts | 214° |
| 2026-05-06 21:16 | 28.68849 | -81.32796 | 3750 ft | 204 kts | 193° |
| 2026-05-06 21:16 | 28.67453 | -81.32945 | 3423 ft | 201 kts | 179° |
| 2026-05-06 21:16 | 28.66078 | -81.32928 | 3091 ft | 199 kts | 179° |
| 2026-05-06 21:16 | 28.64695 | -81.32912 | 3022 ft | 200 kts | 179° |
| 2026-05-06 21:17 | 28.63302 | -81.32897 | 3021 ft | 200 kts | 179° |
| 2026-05-06 21:17 | 28.61905 | -81.32882 | 3021 ft | 200 kts | 179° |
| 2026-05-06 21:17 | 28.60512 | -81.32867 | 2982 ft | 201 kts | 179° |
| 2026-05-06 21:17 | 28.59123 | -81.32852 | 2792 ft | 200 kts | 179° |
| 2026-05-06 21:18 | 28.57732 | -81.32837 | 2548 ft | 200 kts | 179° |
| 2026-05-06 21:18 | 28.56345 | -81.32822 | 2297 ft | 200 kts | 179° |
| 2026-05-06 21:18 | 28.54961 | -81.32807 | 2064 ft | 196 kts | 179° |
| 2026-05-06 21:18 | 28.53649 | -81.32792 | 1836 ft | 181 kts | 179° |
| 2026-05-06 21:19 | 28.52468 | -81.32776 | 1671 ft | 157 kts | 179° |
| 2026-05-06 21:19 | 28.51429 | -81.32761 | 1473 ft | 144 kts | 178° |
| 2026-05-06 21:19 | 28.50438 | -81.32751 | 1222 ft | 140 kts | 178° |
| 2026-05-06 21:19 | 28.49465 | -81.32733 | 1036 ft | 140 kts | 180° |
| 2026-05-06 21:20 | 28.48493 | -81.32725 | 862 ft | 138 kts | 180° |
| 2026-05-06 21:20 | 28.47855 | -81.32728 | 717 ft | 139 kts | 178° |
| 2026-05-06 21:20 | 28.46557 | -81.32708 | 501 ft | 140 kts | 179° |
| 2026-05-06 21:20 | 28.45584 | -81.32704 | 308 ft | 140 kts | 179° |
| 2026-05-06 21:21 | 28.44609 | -81.32694 | 148 ft | 140 kts | 179° |
| 2026-05-06 21:21 | 28.43676 | -81.32684 | 107 ft | 120 kts | 179° |
| 2026-05-06 21:21 | 28.43009 | -81.32677 | 108 ft | 73 kts | 179° |
| 2026-05-06 21:21 | 28.42713 | -81.32664 | 102 ft | 30 kts | 163° |
| 2026-05-06 21:22 | 28.42607 | -81.32570 | 104 ft | 15 kts | 124° |
| 2026-05-06 21:22 | 28.42549 | -81.32468 | 106 ft | 16 kts | 121° |
| 2026-05-06 21:22 | 28.42498 | -81.32360 | 107 ft | 14 kts | 123° |
| 2026-05-06 21:22 | 28.42471 | -81.32312 | 107 ft | 4 kts | 123° |
| 2026-05-06 21:23 | 28.42456 | -81.32285 | 109 ft | 6 kts | 121° |
| 2026-05-06 21:23 | 28.42420 | -81.32217 | 111 ft | 12 kts | 121° |
| 2026-05-06 21:23 | 28.42391 | -81.32161 | 111 ft | 11 kts | 120° |
| 2026-05-06 21:23 | 28.42356 | -81.32090 | 110 ft | 10 kts | 119° |
| 2026-05-06 21:24 | 28.42346 | -81.32000 | 109 ft | 13 kts | 89° |
| 2026-05-06 21:24 | 28.42346 | -81.31903 | 108 ft | 12 kts | 88° |
| 2026-05-06 21:24 | 28.42397 | -81.31832 | 107 ft | 14 kts | 7° |
| 2026-05-06 21:24 | 28.42506 | -81.31833 | 107 ft | 17 kts | 359° |
| 2026-05-06 21:25 | 28.42622 | -81.31834 | 107 ft | 16 kts | 360° |
| 2026-05-06 21:25 | 28.42746 | -81.31836 | 106 ft | 20 kts | 359° |
| 2026-05-06 21:25 | 28.42891 | -81.31837 | 102 ft | 22 kts | 359° |
| 2026-05-06 21:25 | 28.43033 | -81.31838 | 103 ft | 16 kts | 359° |
| 2026-05-06 21:26 | 28.43150 | -81.31839 | 102 ft | 18 kts | 359° |
| 2026-05-06 21:26 | 28.43290 | -81.31841 | 101 ft | 22 kts | 358° |
| 2026-05-06 21:26 | 28.43419 | -81.31841 | 102 ft | 16 kts | 1° |
| 2026-05-06 21:26 | 28.43491 | -81.31788 | 103 ft | 11 kts | 59° |
| 2026-05-06 21:27 | 28.43513 | -81.31699 | 102 ft | 12 kts | 77° |
| 2026-05-06 21:27 | 28.43584 | -81.31645 | 102 ft | 14 kts | 12° |
| 2026-05-06 21:27 | 28.43668 | -81.31620 | 102 ft | 13 kts | 27° |
| 2026-05-06 21:27 | 28.43708 | -81.31535 | 102 ft | 11 kts | 82° |
| 2026-05-06 21:28 | 28.43699 | -81.31463 | 102 ft | 9 kts | 100° |
| 2026-05-06 21:28 | 28.43688 | -81.31401 | 102 ft | 5 kts | 102° |
| 2026-05-06 21:28 | 28.43683 | -81.31377 | 102 ft | 4 kts | 102° |
| 2026-05-06 21:28 | 28.43682 | -81.31338 | 102 ft | 6 kts | 85° |
| 2026-05-06 21:29 | 28.43693 | -81.31282 | 102 ft | 8 kts | 72° |
| 2026-05-06 21:29 | 28.43689 | -81.31242 | 102 ft | 0 kts | 110° |
| 2026-05-06 21:30 | 28.43688 | -81.31240 | 102 ft | 1 kts | 117° |
| 2026-05-06 21:30 | 28.43682 | -81.31235 | 101 ft | 2 kts | 143° |
| 2026-05-06 21:30 | 28.43660 | -81.31233 | 102 ft | 4 kts | 187° |
| 2026-05-06 21:30 | 28.43640 | -81.31240 | 102 ft | 3 kts | 199° |
| 2026-05-06 21:31 | 28.43618 | -81.31249 | 102 ft | 3 kts | 201° |
| 2026-05-06 21:31 | 28.43614 | -81.31251 | 102 ft | 0 kts | 201° |